sensor_id;sensor_type;location;lat;lon;timestamp;temperature;humidity
6206;DHT22;3136;48.788;9.772;2024-01-27T00:00:05;1.10;1.00
6206;DHT22;3136;48.788;9.772;2024-01-27T00:02:31;1.10;1.00
6206;DHT22;3136;48.788;9.772;2024-01-27T00:04:57;1.10;1.00
6206;DHT22;3136;48.788;9.772;2024-01-27T00:07:22;1.10;1.00
6206;DHT22;3136;48.788;9.772;2024-01-27T00:09:48;1.10;1.00
6206;DHT22;3136;48.788;9.772;2024-01-27T00:12:14;1.10;1.00
6206;DHT22;3136;48.788;9.772;2024-01-27T00:14:40;1.00;1.00
6206;DHT22;3136;48.788;9.772;2024-01-27T00:17:06;1.00;1.00
6206;DHT22;3136;48.788;9.772;2024-01-27T00:19:31;1.00;1.00
6206;DHT22;3136;48.788;9.772;2024-01-27T00:21:57;1.00;1.00
6206;DHT22;3136;48.788;9.772;2024-01-27T00:24:24;0.90;1.00
6206;DHT22;3136;48.788;9.772;2024-01-27T00:26:49;0.90;1.00
6206;DHT22;3136;48.788;9.772;2024-01-27T00:29:15;0.80;1.00
6206;DHT22;3136;48.788;9.772;2024-01-27T00:31:40;0.80;1.00
6206;DHT22;3136;48.788;9.772;2024-01-27T00:34:06;0.80;1.00
6206;DHT22;3136;48.788;9.772;2024-01-27T00:36:31;0.70;1.00
6206;DHT22;3136;48.788;9.772;2024-01-27T00:38:57;0.70;1.00
6206;DHT22;3136;48.788;9.772;2024-01-27T00:41:23;0.70;1.00
6206;DHT22;3136;48.788;9.772;2024-01-27T00:43:48;0.70;1.00
6206;DHT22;3136;48.788;9.772;2024-01-27T00:46:14;0.70;1.00
6206;DHT22;3136;48.788;9.772;2024-01-27T00:48:39;0.80;1.00
6206;DHT22;3136;48.788;9.772;2024-01-27T00:51:05;0.70;1.00
6206;DHT22;3136;48.788;9.772;2024-01-27T00:53:31;0.70;1.00
6206;DHT22;3136;48.788;9.772;2024-01-27T00:55:56;0.60;1.00
6206;DHT22;3136;48.788;9.772;2024-01-27T00:58:22;0.60;1.00
6206;DHT22;3136;48.788;9.772;2024-01-27T01:00:47;0.50;1.00
6206;DHT22;3136;48.788;9.772;2024-01-27T01:03:13;0.50;1.00
6206;DHT22;3136;48.788;9.772;2024-01-27T01:05:38;0.90;1.00
6206;DHT22;3136;48.788;9.772;2024-01-27T01:08:04;0.50;1.00
6206;DHT22;3136;48.788;9.772;2024-01-27T01:10:31;0.50;1.00
6206;DHT22;3136;48.788;9.772;2024-01-27T01:12:57;0.40;1.00
6206;DHT22;3136;48.788;9.772;2024-01-27T01:15:23;0.40;1.00
6206;DHT22;3136;48.788;9.772;2024-01-27T01:17:48;0.40;1.00
6206;DHT22;3136;48.788;9.772;2024-01-27T01:20:14;0.90;1.00
6206;DHT22;3136;48.788;9.772;2024-01-27T01:22:40;0.50;1.00
6206;DHT22;3136;48.788;9.772;2024-01-27T01:25:06;0.60;1.00
6206;DHT22;3136;48.788;9.772;2024-01-27T01:27:32;0.60;1.00
6206;DHT22;3136;48.788;9.772;2024-01-27T01:29:57;0.50;1.00
6206;DHT22;3136;48.788;9.772;2024-01-27T01:32:23;0.50;1.00
6206;DHT22;3136;48.788;9.772;2024-01-27T01:34:49;0.50;1.00
6206;DHT22;3136;48.788;9.772;2024-01-27T01:37:14;0.40;1.00
6206;DHT22;3136;48.788;9.772;2024-01-27T01:39:40;0.30;1.00
6206;DHT22;3136;48.788;9.772;2024-01-27T01:42:05;0.30;1.00
6206;DHT22;3136;48.788;9.772;2024-01-27T01:44:31;0.30;1.00
6206;DHT22;3136;48.788;9.772;2024-01-27T01:46:58;0.30;1.00
6206;DHT22;3136;48.788;9.772;2024-01-27T01:49:24;0.30;1.00
6206;DHT22;3136;48.788;9.772;2024-01-27T01:51:49;0.30;1.00
6206;DHT22;3136;48.788;9.772;2024-01-27T01:54:15;0.40;1.00
6206;DHT22;3136;48.788;9.772;2024-01-27T01:56:42;0.40;1.00
6206;DHT22;3136;48.788;9.772;2024-01-27T01:59:08;0.40;1.00
6206;DHT22;3136;48.788;9.772;2024-01-27T02:01:33;0.40;1.00
6206;DHT22;3136;48.788;9.772;2024-01-27T02:03:59;0.40;1.00
6206;DHT22;3136;48.788;9.772;2024-01-27T02:06:24;0.40;1.00
6206;DHT22;3136;48.788;9.772;2024-01-27T02:08:51;0.40;1.00
6206;DHT22;3136;48.788;9.772;2024-01-27T02:11:17;0.40;1.00
6206;DHT22;3136;48.788;9.772;2024-01-27T02:13:42;0.40;1.00
6206;DHT22;3136;48.788;9.772;2024-01-27T02:16:08;0.40;1.00
6206;DHT22;3136;48.788;9.772;2024-01-27T02:18:34;0.30;1.00
6206;DHT22;3136;48.788;9.772;2024-01-27T02:20:59;0.30;1.00
6206;DHT22;3136;48.788;9.772;2024-01-27T02:23:25;0.30;1.00
6206;DHT22;3136;48.788;9.772;2024-01-27T02:25:51;0.20;1.00
6206;DHT22;3136;48.788;9.772;2024-01-27T02:28:17;0.20;1.00
6206;DHT22;3136;48.788;9.772;2024-01-27T02:30:43;0.20;1.00
6206;DHT22;3136;48.788;9.772;2024-01-27T02:33:08;0.10;1.00
6206;DHT22;3136;48.788;9.772;2024-01-27T02:35:34;0.10;1.00
6206;DHT22;3136;48.788;9.772;2024-01-27T02:38:00;0.10;1.00
6206;DHT22;3136;48.788;9.772;2024-01-27T02:40:25;0.10;1.00
6206;DHT22;3136;48.788;9.772;2024-01-27T02:42:51;0.10;1.00
6206;DHT22;3136;48.788;9.772;2024-01-27T02:45:16;0.00;1.00
6206;DHT22;3136;48.788;9.772;2024-01-27T02:47:42;0.00;1.00
6206;DHT22;3136;48.788;9.772;2024-01-27T02:50:08;0.00;1.00
6206;DHT22;3136;48.788;9.772;2024-01-27T02:52:34;0.00;1.00
6206;DHT22;3136;48.788;9.772;2024-01-27T02:55:00;-0.10;1.00
6206;DHT22;3136;48.788;9.772;2024-01-27T02:57:25;-0.10;1.00
6206;DHT22;3136;48.788;9.772;2024-01-27T02:59:51;-0.10;1.00
6206;DHT22;3136;48.788;9.772;2024-01-27T03:02:17;-0.10;1.00
6206;DHT22;3136;48.788;9.772;2024-01-27T03:04:42;-0.10;1.00
6206;DHT22;3136;48.788;9.772;2024-01-27T03:07:08;-0.20;1.00
6206;DHT22;3136;48.788;9.772;2024-01-27T03:09:33;-0.20;1.00
6206;DHT22;3136;48.788;9.772;2024-01-27T03:11:59;-0.20;1.00
6206;DHT22;3136;48.788;9.772;2024-01-27T03:14:24;-0.20;1.00
6206;DHT22;3136;48.788;9.772;2024-01-27T03:16:50;-0.20;1.00
6206;DHT22;3136;48.788;9.772;2024-01-27T03:19:16;-0.20;1.00
6206;DHT22;3136;48.788;9.772;2024-01-27T03:21:42;-0.30;1.00
6206;DHT22;3136;48.788;9.772;2024-01-27T03:24:07;-0.30;1.00
6206;DHT22;3136;48.788;9.772;2024-01-27T03:26:33;-0.30;1.00
6206;DHT22;3136;48.788;9.772;2024-01-27T03:28:59;-0.30;1.00
6206;DHT22;3136;48.788;9.772;2024-01-27T03:31:30;-0.30;1.00
6206;DHT22;3136;48.788;9.772;2024-01-27T03:33:57;-0.30;1.00
6206;DHT22;3136;48.788;9.772;2024-01-27T03:36:23;-0.30;1.00
6206;DHT22;3136;48.788;9.772;2024-01-27T03:38:48;-0.20;1.00
6206;DHT22;3136;48.788;9.772;2024-01-27T03:41:14;-0.20;1.00
6206;DHT22;3136;48.788;9.772;2024-01-27T03:43:39;-0.20;1.00
6206;DHT22;3136;48.788;9.772;2024-01-27T03:46:05;-0.20;1.00
6206;DHT22;3136;48.788;9.772;2024-01-27T03:48:30;-0.30;1.00
6206;DHT22;3136;48.788;9.772;2024-01-27T03:50:56;-0.20;1.00
6206;DHT22;3136;48.788;9.772;2024-01-27T03:53:22;-0.20;1.00
6206;DHT22;3136;48.788;9.772;2024-01-27T03:55:47;-0.20;1.00
6206;DHT22;3136;48.788;9.772;2024-01-27T03:58:13;-0.20;1.00
6206;DHT22;3136;48.788;9.772;2024-01-27T04:00:38;-0.10;1.00
6206;DHT22;3136;48.788;9.772;2024-01-27T04:03:04;-0.10;1.00
6206;DHT22;3136;48.788;9.772;2024-01-27T04:05:30;-0.10;1.00
6206;DHT22;3136;48.788;9.772;2024-01-27T04:07:56;-0.20;1.00
6206;DHT22;3136;48.788;9.772;2024-01-27T04:10:22;-0.20;1.00
6206;DHT22;3136;48.788;9.772;2024-01-27T04:12:48;-0.20;1.00
6206;DHT22;3136;48.788;9.772;2024-01-27T04:15:14;-0.30;1.00
6206;DHT22;3136;48.788;9.772;2024-01-27T04:17:40;-0.30;1.00
6206;DHT22;3136;48.788;9.772;2024-01-27T04:20:07;-0.40;1.00
6206;DHT22;3136;48.788;9.772;2024-01-27T04:22:36;-0.40;1.00
6206;DHT22;3136;48.788;9.772;2024-01-27T04:25:02;-0.50;1.00
6206;DHT22;3136;48.788;9.772;2024-01-27T04:27:29;-0.40;1.00
6206;DHT22;3136;48.788;9.772;2024-01-27T04:29:54;-0.40;1.00
6206;DHT22;3136;48.788;9.772;2024-01-27T04:32:20;-0.50;1.00
6206;DHT22;3136;48.788;9.772;2024-01-27T04:34:47;-0.50;1.00
6206;DHT22;3136;48.788;9.772;2024-01-27T04:37:12;-0.50;1.00
6206;DHT22;3136;48.788;9.772;2024-01-27T04:39:38;-0.60;1.00
6206;DHT22;3136;48.788;9.772;2024-01-27T04:42:04;-0.50;1.00
6206;DHT22;3136;48.788;9.772;2024-01-27T04:44:31;-0.50;1.00
6206;DHT22;3136;48.788;9.772;2024-01-27T04:46:57;-0.50;1.00
6206;DHT22;3136;48.788;9.772;2024-01-27T04:49:23;-0.50;1.00
6206;DHT22;3136;48.788;9.772;2024-01-27T04:51:48;-0.50;1.00
6206;DHT22;3136;48.788;9.772;2024-01-27T04:54:14;-0.50;1.00
6206;DHT22;3136;48.788;9.772;2024-01-27T04:56:39;-0.50;1.00
6206;DHT22;3136;48.788;9.772;2024-01-27T04:59:05;-0.50;1.00
6206;DHT22;3136;48.788;9.772;2024-01-27T05:01:31;-0.60;1.00
6206;DHT22;3136;48.788;9.772;2024-01-27T05:03:57;-0.50;1.00
6206;DHT22;3136;48.788;9.772;2024-01-27T05:06:22;-0.50;1.00
6206;DHT22;3136;48.788;9.772;2024-01-27T05:08:48;-0.50;1.00
6206;DHT22;3136;48.788;9.772;2024-01-27T05:11:13;-0.40;1.00
6206;DHT22;3136;48.788;9.772;2024-01-27T05:13:40;-0.40;1.00
6206;DHT22;3136;48.788;9.772;2024-01-27T05:16:05;-0.50;1.00
6206;DHT22;3136;48.788;9.772;2024-01-27T05:18:31;-0.50;1.00
6206;DHT22;3136;48.788;9.772;2024-01-27T05:20:57;-0.60;1.00
6206;DHT22;3136;48.788;9.772;2024-01-27T05:23:22;-0.60;1.00
6206;DHT22;3136;48.788;9.772;2024-01-27T05:25:49;-0.70;1.00
6206;DHT22;3136;48.788;9.772;2024-01-27T05:28:14;-0.70;1.00
6206;DHT22;3136;48.788;9.772;2024-01-27T05:30:40;-0.80;1.00
6206;DHT22;3136;48.788;9.772;2024-01-27T05:33:05;-0.80;1.00
6206;DHT22;3136;48.788;9.772;2024-01-27T05:35:31;-0.80;1.00
6206;DHT22;3136;48.788;9.772;2024-01-27T05:37:56;-0.80;1.00
6206;DHT22;3136;48.788;9.772;2024-01-27T05:40:22;-0.80;1.00
6206;DHT22;3136;48.788;9.772;2024-01-27T05:42:48;-0.70;1.00
6206;DHT22;3136;48.788;9.772;2024-01-27T05:45:14;-0.70;1.00
6206;DHT22;3136;48.788;9.772;2024-01-27T05:47:40;-0.60;1.00
6206;DHT22;3136;48.788;9.772;2024-01-27T05:50:06;-0.60;1.00
6206;DHT22;3136;48.788;9.772;2024-01-27T05:52:34;-0.60;1.00
6206;DHT22;3136;48.788;9.772;2024-01-27T05:55:00;-0.60;1.00
6206;DHT22;3136;48.788;9.772;2024-01-27T05:57:26;-0.60;1.00
6206;DHT22;3136;48.788;9.772;2024-01-27T05:59:51;-0.50;1.00
6206;DHT22;3136;48.788;9.772;2024-01-27T06:02:17;-0.40;1.00
6206;DHT22;3136;48.788;9.772;2024-01-27T06:04:43;-0.40;1.00
6206;DHT22;3136;48.788;9.772;2024-01-27T06:07:08;-0.40;1.00
6206;DHT22;3136;48.788;9.772;2024-01-27T06:09:34;0.30;1.00
6206;DHT22;3136;48.788;9.772;2024-01-27T06:12:02;-0.40;1.00
6206;DHT22;3136;48.788;9.772;2024-01-27T06:14:27;-0.40;1.00
6206;DHT22;3136;48.788;9.772;2024-01-27T06:16:53;-0.40;1.00
6206;DHT22;3136;48.788;9.772;2024-01-27T06:19:19;-0.40;1.00
6206;DHT22;3136;48.788;9.772;2024-01-27T06:21:44;-0.40;1.00
6206;DHT22;3136;48.788;9.772;2024-01-27T06:24:10;-0.30;1.00
6206;DHT22;3136;48.788;9.772;2024-01-27T06:26:35;-0.30;1.00
6206;DHT22;3136;48.788;9.772;2024-01-27T06:29:01;-0.40;1.00
6206;DHT22;3136;48.788;9.772;2024-01-27T06:31:27;-0.30;1.00
6206;DHT22;3136;48.788;9.772;2024-01-27T06:33:53;-0.30;1.00
6206;DHT22;3136;48.788;9.772;2024-01-27T06:36:19;-0.40;1.00
6206;DHT22;3136;48.788;9.772;2024-01-27T06:38:44;-0.40;1.00
6206;DHT22;3136;48.788;9.772;2024-01-27T06:41:10;-0.40;1.00
6206;DHT22;3136;48.788;9.772;2024-01-27T06:43:36;-0.50;1.00
6206;DHT22;3136;48.788;9.772;2024-01-27T06:46:01;-0.50;1.00
6206;DHT22;3136;48.788;9.772;2024-01-27T06:48:27;-0.60;1.00
6206;DHT22;3136;48.788;9.772;2024-01-27T06:50:52;-0.70;1.00
6206;DHT22;3136;48.788;9.772;2024-01-27T06:53:18;-0.80;1.00
6206;DHT22;3136;48.788;9.772;2024-01-27T06:55:44;-0.80;1.00
6206;DHT22;3136;48.788;9.772;2024-01-27T06:58:10;-0.80;1.00
6206;DHT22;3136;48.788;9.772;2024-01-27T07:00:35;-0.90;1.00
6206;DHT22;3136;48.788;9.772;2024-01-27T07:03:01;-0.90;1.00
6206;DHT22;3136;48.788;9.772;2024-01-27T07:05:27;-0.90;1.00
6206;DHT22;3136;48.788;9.772;2024-01-27T07:07:53;-1.00;1.00
6206;DHT22;3136;48.788;9.772;2024-01-27T07:10:19;-1.00;1.00
6206;DHT22;3136;48.788;9.772;2024-01-27T07:12:45;-1.10;1.00
6206;DHT22;3136;48.788;9.772;2024-01-27T07:15:10;-1.10;1.00
6206;DHT22;3136;48.788;9.772;2024-01-27T07:17:36;-2.00;1.00
6206;DHT22;3136;48.788;9.772;2024-01-27T07:20:01;-1.10;1.00
6206;DHT22;3136;48.788;9.772;2024-01-27T07:22:27;-1.10;1.00
6206;DHT22;3136;48.788;9.772;2024-01-27T07:24:52;-1.10;1.00
6206;DHT22;3136;48.788;9.772;2024-01-27T07:27:18;-1.10;1.00
6206;DHT22;3136;48.788;9.772;2024-01-27T07:29:44;-1.10;1.00
6206;DHT22;3136;48.788;9.772;2024-01-27T07:32:10;-1.10;1.00
6206;DHT22;3136;48.788;9.772;2024-01-27T07:34:43;-1.00;1.00
6206;DHT22;3136;48.788;9.772;2024-01-27T07:37:11;-1.00;1.00
6206;DHT22;3136;48.788;9.772;2024-01-27T07:39:37;-0.90;1.00
6206;DHT22;3136;48.788;9.772;2024-01-27T07:42:03;-0.80;1.00
6206;DHT22;3136;48.788;9.772;2024-01-27T07:44:29;-0.70;1.00
6206;DHT22;3136;48.788;9.772;2024-01-27T07:46:55;-0.60;1.00
6206;DHT22;3136;48.788;9.772;2024-01-27T07:49:20;-0.50;1.00
6206;DHT22;3136;48.788;9.772;2024-01-27T07:51:46;-0.40;1.00
6206;DHT22;3136;48.788;9.772;2024-01-27T07:54:11;-0.40;1.00
6206;DHT22;3136;48.788;9.772;2024-01-27T07:56:40;-0.30;1.00
6206;DHT22;3136;48.788;9.772;2024-01-27T07:59:06;-0.30;1.00
6206;DHT22;3136;48.788;9.772;2024-01-27T08:01:39;0.80;1.00
6206;DHT22;3136;48.788;9.772;2024-01-27T08:04:05;-0.10;1.00
6206;DHT22;3136;48.788;9.772;2024-01-27T08:06:30;0.00;1.00
6206;DHT22;3136;48.788;9.772;2024-01-27T08:08:56;0.00;1.00
6206;DHT22;3136;48.788;9.772;2024-01-27T08:11:22;0.10;1.20
6206;DHT22;3136;48.788;9.772;2024-01-27T08:13:47;0.10;1.00
6206;DHT22;3136;48.788;9.772;2024-01-27T08:16:13;0.20;1.00
6206;DHT22;3136;48.788;9.772;2024-01-27T08:18:40;0.20;1.00
6206;DHT22;3136;48.788;9.772;2024-01-27T08:21:08;0.20;1.00
6206;DHT22;3136;48.788;9.772;2024-01-27T08:23:33;0.20;1.00
6206;DHT22;3136;48.788;9.772;2024-01-27T08:25:59;0.20;1.00
6206;DHT22;3136;48.788;9.772;2024-01-27T08:28:24;0.30;2.90
6206;DHT22;3136;48.788;9.772;2024-01-27T08:30:50;0.30;2.30
6206;DHT22;3136;48.788;9.772;2024-01-27T08:33:15;0.40;3.00
6206;DHT22;3136;48.788;9.772;2024-01-27T08:35:41;0.50;2.30
6206;DHT22;3136;48.788;9.772;2024-01-27T08:38:07;0.50;1.00
6206;DHT22;3136;48.788;9.772;2024-01-27T08:40:34;0.50;1.00
6206;DHT22;3136;48.788;9.772;2024-01-27T08:43:01;0.50;1.00
6206;DHT22;3136;48.788;9.772;2024-01-27T08:45:26;0.50;1.00
6206;DHT22;3136;48.788;9.772;2024-01-27T08:47:52;0.60;1.00
6206;DHT22;3136;48.788;9.772;2024-01-27T08:50:18;0.70;1.00
6206;DHT22;3136;48.788;9.772;2024-01-27T08:52:44;0.70;1.00
6206;DHT22;3136;48.788;9.772;2024-01-27T08:55:09;0.70;1.00
6206;DHT22;3136;48.788;9.772;2024-01-27T08:57:35;0.80;1.00
6206;DHT22;3136;48.788;9.772;2024-01-27T09:00:00;0.80;1.00
6206;DHT22;3136;48.788;9.772;2024-01-27T09:02:26;0.80;1.00
6206;DHT22;3136;48.788;9.772;2024-01-27T09:04:51;0.90;1.00
6206;DHT22;3136;48.788;9.772;2024-01-27T09:07:17;0.90;1.00
6206;DHT22;3136;48.788;9.772;2024-01-27T09:09:43;1.00;1.00
6206;DHT22;3136;48.788;9.772;2024-01-27T09:12:08;1.00;1.00
6206;DHT22;3136;48.788;9.772;2024-01-27T09:14:34;1.00;1.00
6206;DHT22;3136;48.788;9.772;2024-01-27T09:17:00;1.00;1.00
6206;DHT22;3136;48.788;9.772;2024-01-27T09:19:26;1.00;1.00
6206;DHT22;3136;48.788;9.772;2024-01-27T09:21:51;1.10;1.00
6206;DHT22;3136;48.788;9.772;2024-01-27T09:24:17;1.30;1.00
6206;DHT22;3136;48.788;9.772;2024-01-27T09:26:42;1.40;1.00
6206;DHT22;3136;48.788;9.772;2024-01-27T09:29:08;1.50;1.00
6206;DHT22;3136;48.788;9.772;2024-01-27T09:31:34;1.60;9.70
6206;DHT22;3136;48.788;9.772;2024-01-27T09:34:00;1.80;15.00
6206;DHT22;3136;48.788;9.772;2024-01-27T09:36:26;2.00;16.70
6206;DHT22;3136;48.788;9.772;2024-01-27T09:38:52;2.10;17.20
6206;DHT22;3136;48.788;9.772;2024-01-27T09:41:18;2.20;17.00
6206;DHT22;3136;48.788;9.772;2024-01-27T09:43:44;2.30;13.30
6206;DHT22;3136;48.788;9.772;2024-01-27T09:46:16;2.40;9.90
6206;DHT22;3136;48.788;9.772;2024-01-27T09:48:43;2.40;6.60
6206;DHT22;3136;48.788;9.772;2024-01-27T09:51:10;2.40;1.00
6206;DHT22;3136;48.788;9.772;2024-01-27T09:53:36;2.30;1.00
6206;DHT22;3136;48.788;9.772;2024-01-27T09:56:03;2.30;1.00
6206;DHT22;3136;48.788;9.772;2024-01-27T09:58:32;2.40;1.00
6206;DHT22;3136;48.788;9.772;2024-01-27T10:01:00;2.60;6.10
6206;DHT22;3136;48.788;9.772;2024-01-27T10:03:26;2.70;9.90
6206;DHT22;3136;48.788;9.772;2024-01-27T10:05:53;3.00;13.00
6206;DHT22;3136;48.788;9.772;2024-01-27T10:08:20;3.30;13.00
6206;DHT22;3136;48.788;9.772;2024-01-27T10:10:47;3.60;8.70
6206;DHT22;3136;48.788;9.772;2024-01-27T10:13:14;3.80;3.50
6206;DHT22;3136;48.788;9.772;2024-01-27T10:15:42;4.10;1.00
6206;DHT22;3136;48.788;9.772;2024-01-27T10:18:08;4.30;1.00
6206;DHT22;3136;48.788;9.772;2024-01-27T10:20:39;4.50;1.00
6206;DHT22;3136;48.788;9.772;2024-01-27T10:23:13;4.70;1.00
6206;DHT22;3136;48.788;9.772;2024-01-27T10:25:40;4.80;1.00
6206;DHT22;3136;48.788;9.772;2024-01-27T10:28:09;4.80;1.00
6206;DHT22;3136;48.788;9.772;2024-01-27T10:30:35;4.90;1.00
6206;DHT22;3136;48.788;9.772;2024-01-27T10:33:01;5.00;1.00
6206;DHT22;3136;48.788;9.772;2024-01-27T10:35:27;5.20;1.00
6206;DHT22;3136;48.788;9.772;2024-01-27T10:37:53;5.30;1.00
6206;DHT22;3136;48.788;9.772;2024-01-27T10:40:20;5.40;1.00
6206;DHT22;3136;48.788;9.772;2024-01-27T10:42:45;5.50;1.00
6206;DHT22;3136;48.788;9.772;2024-01-27T10:45:12;5.60;1.00
6206;DHT22;3136;48.788;9.772;2024-01-27T10:47:38;5.70;99.90
6206;DHT22;3136;48.788;9.772;2024-01-27T10:50:08;5.80;47.20
6206;DHT22;3136;48.788;9.772;2024-01-27T10:52:39;5.80;99.90
6206;DHT22;3136;48.788;9.772;2024-01-27T10:55:10;5.90;1.00
6206;DHT22;3136;48.788;9.772;2024-01-27T10:57:37;6.20;99.90
6206;DHT22;3136;48.788;9.772;2024-01-27T11:00:04;6.40;32.00
6206;DHT22;3136;48.788;9.772;2024-01-27T11:02:35;6.60;1.00
6206;DHT22;3136;48.788;9.772;2024-01-27T11:05:05;6.90;1.00
6206;DHT22;3136;48.788;9.772;2024-01-27T11:07:33;7.30;74.70
6206;DHT22;3136;48.788;9.772;2024-01-27T11:09:59;7.40;1.00
6206;DHT22;3136;48.788;9.772;2024-01-27T11:12:25;7.50;99.90
6206;DHT22;3136;48.788;9.772;2024-01-27T11:14:52;7.60;1.00
6206;DHT22;3136;48.788;9.772;2024-01-27T11:17:18;7.70;70.00
6206;DHT22;3136;48.788;9.772;2024-01-27T11:19:47;7.90;99.90
6206;DHT22;3136;48.788;9.772;2024-01-27T11:22:27;7.90;1.00
6206;DHT22;3136;48.788;9.772;2024-01-27T11:25:05;7.90;1.00
6206;DHT22;3136;48.788;9.772;2024-01-27T11:27:31;8.00;1.60
6206;DHT22;3136;48.788;9.772;2024-01-27T11:29:57;8.10;1.00
6206;DHT22;3136;48.788;9.772;2024-01-27T11:32:22;8.10;1.00
6206;DHT22;3136;48.788;9.772;2024-01-27T11:34:48;8.20;1.00
6206;DHT22;3136;48.788;9.772;2024-01-27T11:37:15;8.20;1.00
6206;DHT22;3136;48.788;9.772;2024-01-27T11:39:41;8.20;1.00
6206;DHT22;3136;48.788;9.772;2024-01-27T11:42:09;8.10;1.00
6206;DHT22;3136;48.788;9.772;2024-01-27T11:44:38;8.30;1.00
6206;DHT22;3136;48.788;9.772;2024-01-27T11:47:05;8.50;1.00
6206;DHT22;3136;48.788;9.772;2024-01-27T11:49:31;8.60;99.90
6206;DHT22;3136;48.788;9.772;2024-01-27T11:51:56;8.80;1.00
6206;DHT22;3136;48.788;9.772;2024-01-27T11:54:22;9.00;99.90
6206;DHT22;3136;48.788;9.772;2024-01-27T11:56:47;9.10;99.90
6206;DHT22;3136;48.788;9.772;2024-01-27T11:59:14;9.30;99.90
6206;DHT22;3136;48.788;9.772;2024-01-27T12:01:40;9.40;99.90
6206;DHT22;3136;48.788;9.772;2024-01-27T12:04:06;9.50;99.90
6206;DHT22;3136;48.788;9.772;2024-01-27T12:06:32;9.70;99.90
6206;DHT22;3136;48.788;9.772;2024-01-27T12:08:58;9.80;99.90
6206;DHT22;3136;48.788;9.772;2024-01-27T12:11:24;9.90;99.90
6206;DHT22;3136;48.788;9.772;2024-01-27T12:13:51;10.10;99.90
6206;DHT22;3136;48.788;9.772;2024-01-27T12:16:17;10.50;99.90
6206;DHT22;3136;48.788;9.772;2024-01-27T12:18:44;11.00;99.90
6206;DHT22;3136;48.788;9.772;2024-01-27T12:21:10;11.40;99.90
6206;DHT22;3136;48.788;9.772;2024-01-27T12:23:36;11.50;99.90
6206;DHT22;3136;48.788;9.772;2024-01-27T12:26:01;11.20;99.90
6206;DHT22;3136;48.788;9.772;2024-01-27T12:28:27;11.20;99.90
6206;DHT22;3136;48.788;9.772;2024-01-27T12:30:53;11.30;99.90
6206;DHT22;3136;48.788;9.772;2024-01-27T12:33:19;11.50;99.90
6206;DHT22;3136;48.788;9.772;2024-01-27T12:35:49;11.50;99.90
6206;DHT22;3136;48.788;9.772;2024-01-27T12:38:14;11.80;99.90
6206;DHT22;3136;48.788;9.772;2024-01-27T12:40:40;12.00;99.90
6206;DHT22;3136;48.788;9.772;2024-01-27T12:43:06;11.80;99.90
6206;DHT22;3136;48.788;9.772;2024-01-27T12:45:31;12.80;99.90
6206;DHT22;3136;48.788;9.772;2024-01-27T12:48:00;11.70;99.90
6206;DHT22;3136;48.788;9.772;2024-01-27T12:50:26;11.60;99.90
6206;DHT22;3136;48.788;9.772;2024-01-27T12:52:51;11.50;99.90
6206;DHT22;3136;48.788;9.772;2024-01-27T12:55:17;11.30;99.90
6206;DHT22;3136;48.788;9.772;2024-01-27T12:57:43;11.30;99.90
6206;DHT22;3136;48.788;9.772;2024-01-27T13:00:09;11.20;99.90
6206;DHT22;3136;48.788;9.772;2024-01-27T13:02:35;11.20;99.90
6206;DHT22;3136;48.788;9.772;2024-01-27T13:05:01;11.10;99.90
6206;DHT22;3136;48.788;9.772;2024-01-27T13:07:27;10.90;99.90
6206;DHT22;3136;48.788;9.772;2024-01-27T13:09:52;10.80;99.90
6206;DHT22;3136;48.788;9.772;2024-01-27T13:12:18;10.70;99.90
6206;DHT22;3136;48.788;9.772;2024-01-27T13:14:43;10.70;99.90
6206;DHT22;3136;48.788;9.772;2024-01-27T13:17:09;11.40;99.90
6206;DHT22;3136;48.788;9.772;2024-01-27T13:19:34;12.50;99.90
6206;DHT22;3136;48.788;9.772;2024-01-27T13:22:00;13.70;99.90
6206;DHT22;3136;48.788;9.772;2024-01-27T13:24:26;14.90;99.90
6206;DHT22;3136;48.788;9.772;2024-01-27T13:26:51;15.40;99.90
6206;DHT22;3136;48.788;9.772;2024-01-27T13:29:18;16.00;99.90
6206;DHT22;3136;48.788;9.772;2024-01-27T13:31:43;16.40;99.90
6206;DHT22;3136;48.788;9.772;2024-01-27T13:34:09;17.10;99.90
6206;DHT22;3136;48.788;9.772;2024-01-27T13:36:35;17.60;99.90
6206;DHT22;3136;48.788;9.772;2024-01-27T13:39:00;18.00;99.90
6206;DHT22;3136;48.788;9.772;2024-01-27T13:41:26;18.60;99.90
6206;DHT22;3136;48.788;9.772;2024-01-27T13:43:52;19.20;99.90
6206;DHT22;3136;48.788;9.772;2024-01-27T13:46:17;19.30;99.20
6206;DHT22;3136;48.788;9.772;2024-01-27T13:48:43;19.70;98.20
6206;DHT22;3136;48.788;9.772;2024-01-27T13:51:09;19.40;97.80
6206;DHT22;3136;48.788;9.772;2024-01-27T13:53:35;18.80;96.60
6206;DHT22;3136;48.788;9.772;2024-01-27T13:56:00;19.00;96.80
6206;DHT22;3136;48.788;9.772;2024-01-27T13:58:26;18.30;95.90
6206;DHT22;3136;48.788;9.772;2024-01-27T14:00:52;18.00;96.20
6206;DHT22;3136;48.788;9.772;2024-01-27T14:03:17;16.60;95.60
6206;DHT22;3136;48.788;9.772;2024-01-27T14:05:43;15.20;95.40
6206;DHT22;3136;48.788;9.772;2024-01-27T14:08:09;13.30;95.90
6206;DHT22;3136;48.788;9.772;2024-01-27T14:10:36;11.70;98.00
6206;DHT22;3136;48.788;9.772;2024-01-27T14:13:02;10.50;99.90
6206;DHT22;3136;48.788;9.772;2024-01-27T14:15:38;9.60;99.90
6206;DHT22;3136;48.788;9.772;2024-01-27T14:18:04;9.00;99.90
6206;DHT22;3136;48.788;9.772;2024-01-27T14:20:31;8.40;99.90
6206;DHT22;3136;48.788;9.772;2024-01-27T14:22:59;8.00;99.90
6206;DHT22;3136;48.788;9.772;2024-01-27T14:25:24;7.70;99.90
6206;DHT22;3136;48.788;9.772;2024-01-27T14:27:50;7.40;99.90
6206;DHT22;3136;48.788;9.772;2024-01-27T14:30:15;7.20;1.00
6206;DHT22;3136;48.788;9.772;2024-01-27T14:32:41;7.00;1.00
6206;DHT22;3136;48.788;9.772;2024-01-27T14:35:07;6.80;1.00
6206;DHT22;3136;48.788;9.772;2024-01-27T14:37:33;6.60;1.00
6206;DHT22;3136;48.788;9.772;2024-01-27T14:39:58;6.40;1.00
6206;DHT22;3136;48.788;9.772;2024-01-27T14:42:24;6.20;1.00
6206;DHT22;3136;48.788;9.772;2024-01-27T14:44:50;6.10;1.00
6206;DHT22;3136;48.788;9.772;2024-01-27T14:47:18;6.00;1.00
6206;DHT22;3136;48.788;9.772;2024-01-27T14:49:45;5.80;1.00
6206;DHT22;3136;48.788;9.772;2024-01-27T14:52:11;5.70;46.70
6206;DHT22;3136;48.788;9.772;2024-01-27T14:54:37;5.50;99.90
6206;DHT22;3136;48.788;9.772;2024-01-27T14:57:04;5.40;99.90
6206;DHT22;3136;48.788;9.772;2024-01-27T14:59:31;5.40;99.90
6206;DHT22;3136;48.788;9.772;2024-01-27T15:01:57;5.20;99.90
6206;DHT22;3136;48.788;9.772;2024-01-27T15:04:25;5.10;1.00
6206;DHT22;3136;48.788;9.772;2024-01-27T15:06:55;4.90;1.00
6206;DHT22;3136;48.788;9.772;2024-01-27T15:09:22;4.70;1.00
6206;DHT22;3136;48.788;9.772;2024-01-27T15:11:48;4.60;1.00
6206;DHT22;3136;48.788;9.772;2024-01-27T15:14:14;4.50;99.90
6206;DHT22;3136;48.788;9.772;2024-01-27T15:16:40;4.50;99.90
6206;DHT22;3136;48.788;9.772;2024-01-27T15:19:05;4.40;1.00
6206;DHT22;3136;48.788;9.772;2024-01-27T15:21:32;4.40;1.00
6206;DHT22;3136;48.788;9.772;2024-01-27T15:23:57;4.40;1.00
6206;DHT22;3136;48.788;9.772;2024-01-27T15:26:23;4.40;74.40
6206;DHT22;3136;48.788;9.772;2024-01-27T15:28:48;4.30;1.00
6206;DHT22;3136;48.788;9.772;2024-01-27T15:31:14;4.10;1.00
6206;DHT22;3136;48.788;9.772;2024-01-27T15:33:40;4.00;1.00
6206;DHT22;3136;48.788;9.772;2024-01-27T15:36:06;3.80;15.10
6206;DHT22;3136;48.788;9.772;2024-01-27T15:38:32;3.70;99.90
6206;DHT22;3136;48.788;9.772;2024-01-27T15:40:58;3.60;1.00
6206;DHT22;3136;48.788;9.772;2024-01-27T15:43:24;3.50;89.00
6206;DHT22;3136;48.788;9.772;2024-01-27T15:45:50;3.40;99.90
6206;DHT22;3136;48.788;9.772;2024-01-27T15:48:17;3.30;1.00
6206;DHT22;3136;48.788;9.772;2024-01-27T15:50:43;3.10;28.80
6206;DHT22;3136;48.788;9.772;2024-01-27T15:53:10;3.00;1.00
6206;DHT22;3136;48.788;9.772;2024-01-27T15:55:35;2.90;99.90
6206;DHT22;3136;48.788;9.772;2024-01-27T15:58:01;2.80;1.00
6206;DHT22;3136;48.788;9.772;2024-01-27T16:00:27;2.70;1.00
6206;DHT22;3136;48.788;9.772;2024-01-27T16:02:53;2.60;99.90
6206;DHT22;3136;48.788;9.772;2024-01-27T16:05:19;2.50;1.00
6206;DHT22;3136;48.788;9.772;2024-01-27T16:07:45;2.40;77.60
6206;DHT22;3136;48.788;9.772;2024-01-27T16:10:10;2.30;1.00
6206;DHT22;3136;48.788;9.772;2024-01-27T16:12:36;2.20;99.90